Time;durP1;ratioP1;P1;durP2;ratioP2;P2;SDS_P1;SDS_P2;PMS_P1;PMS_P2;Temp;Humidity;BMP_temperature;BMP_pressure;BME280_temperature;BME280_humidity;BME280_pressure;Samples;Min_cycle;Max_cycle;Signal;HPM_P1;HPM_P2
2024/03/31 00:01:13;;;;;;;29.17;8.70;;;;;;;12.21;100.00;99459.03;5011722;28;20092;-75
2024/03/31 00:03:40;;;;;;;32.95;7.65;;;;;;;12.40;100.00;99504.97;5028443;28;20543;-74
2024/03/31 00:06:06;;;;;;;28.60;7.72;;;;;;;12.67;100.00;99471.44;5028716;28;20029;-74
2024/03/31 00:08:32;;;;;;;29.52;7.50;;;;;;;12.15;100.00;99528.94;5014170;28;20112;-74
2024/03/31 00:11:01;;;;;;;28.50;7.53;;;;;;;12.80;100.00;99592.44;5030519;28;20037;-75
2024/03/31 00:13:30;;;;;;;25.05;7.63;;;;;;;12.33;100.00;99488.28;5017433;28;20049;-79
2024/03/31 00:15:55;;;;;;;27.13;7.22;;;;;;;11.94;100.00;99438.09;5011432;28;20487;-73
2024/03/31 00:18:21;;;;;;;32.88;8.85;;;;;;;12.73;100.00;99585.94;5028867;28;20037;-76
2024/03/31 00:20:52;;;;;;;29.42;8.25;;;;;;;11.90;100.00;99426.44;5027233;28;20033;-73
2024/03/31 00:23:18;;;;;;;35.97;7.65;;;;;;;11.72;100.00;99498.47;5027733;28;20040;-73
2024/03/31 00:26:02;;;;;;;29.00;7.45;;;;;;;12.43;100.00;99520.13;5029303;28;20416;-73
2024/03/31 00:28:27;;;;;;;26.23;7.45;;;;;;;12.69;100.00;99563.19;5028632;28;20068;-73
2024/03/31 00:30:57;;;;;;;33.90;7.13;;;;;;;12.31;100.00;99558.88;5011311;28;20504;-73
2024/03/31 00:33:24;;;;;;;27.15;7.63;;;;;;;12.67;100.00;99552.22;5010516;28;20099;-73
2024/03/31 00:35:55;;;;;;;27.70;7.05;;;;;;;12.16;100.00;99459.25;5028741;28;20036;-73
2024/03/31 00:38:21;;;;;;;;;;;;;;;12.99;100.00;99534.59;5027919;28;20025;-73
2024/03/31 00:40:46;;;;;;;22.00;6.78;;;;;;;12.95;100.00;99534.81;5010674;28;20350;-73
2024/03/31 00:43:13;;;;;;;23.33;7.03;;;;;;;12.62;100.00;99577.91;5028066;28;20032;-73
2024/03/31 00:45:39;;;;;;;29.42;7.50;;;;;;;11.95;100.00;99489.88;5028704;28;20032;-72
2024/03/31 00:48:05;;;;;;;26.83;6.97;;;;;;;13.07;100.00;99511.34;5027679;28;20025;-75
2024/03/31 00:50:31;;;;;;;28.27;7.22;;;;;;;11.94;100.00;99360.88;5028098;28;20120;-74
2024/03/31 00:52:57;;;;;;;26.48;7.28;;;;;;;12.93;100.00;99522.09;5028564;28;20540;-74
2024/03/31 00:55:22;;;;;;;26.65;6.90;;;;;;;12.90;100.00;99531.63;5010827;28;20034;-75
2024/03/31 00:57:48;;;;;;;25.90;7.72;;;;;;;12.62;100.00;99551.56;5028104;28;20124;-73
2024/03/31 01:00:16;;;;;;;30.95;7.20;;;;;;;12.54;100.00;99459.31;5028066;28;20021;-73
2024/03/31 01:02:42;;;;;;;26.95;6.80;;;;;;;12.52;100.00;99558.78;5028701;28;20475;-73
2024/03/31 01:05:11;;;;;;;29.67;7.50;;;;;;;11.73;100.00;99458.53;5010599;28;20048;-74
2024/03/31 01:07:36;;;;;;;26.15;7.10;;;;;;;12.12;100.00;99455.16;5010549;28;20029;-77
2024/03/31 01:10:02;;;;;;;31.17;7.65;;;;;;;12.41;100.00;99555.06;5025970;28;20495;-80
2024/03/31 01:12:28;;;;;;;24.63;7.38;;;;;;;12.48;100.00;99557.28;5027920;28;20037;-73
2024/03/31 01:14:55;;;;;;;28.95;7.63;;;;;;;12.35;100.00;99525.56;5028957;28;20618;-74
2024/03/31 01:17:21;;;;;;;30.63;7.50;;;;;;;12.61;100.00;99498.94;5027327;28;20060;-79
2024/03/31 01:19:46;;;;;;;24.50;7.40;;;;;;;12.51;100.00;99516.38;5009684;28;20435;-74
2024/03/31 01:22:12;;;;;;;28.80;7.70;;;;;;;11.95;100.00;99391.38;5028676;28;20033;-74
2024/03/31 01:24:37;;;;;;;33.75;8.40;;;;;;;11.88;100.00;99401.91;5015719;28;20033;-78
2024/03/31 01:27:03;;;;;;;32.13;7.45;;;;;;;12.23;100.00;99402.91;5010803;28;20470;-78
2024/03/31 01:29:28;;;;;;;32.38;7.45;;;;;;;12.25;100.00;99521.75;5028439;28;20034;-73
2024/03/31 01:31:54;;;;;;;27.63;7.45;;;;;;;12.12;100.00;99385.56;5027396;28;20041;-73
2024/03/31 01:34:19;;;;;;;35.05;8.02;;;;;;;11.86;100.00;99373.97;5026845;28;20108;-73
2024/03/31 01:36:44;;;;;;;25.45;7.40;;;;;;;11.80;100.00;99406.50;5010283;28;20407;-80
2024/03/31 01:39:11;;;;;;;35.17;8.85;;;;;;;11.82;100.00;99412.34;5027763;28;20033;-73
2024/03/31 01:41:36;;;;;;;28.75;8.30;;;;;;;11.96;100.00;99499.19;5028051;28;20037;-75
2024/03/31 01:44:02;;;;;;;27.92;7.20;;;;;;;11.89;100.00;99325.41;5010230;28;20034;-74
2024/03/31 01:46:27;;;;;;;30.13;8.02;;;;;;;12.37;100.00;99398.03;5010095;28;20033;-70
2024/03/31 01:48:53;;;;;;;25.95;7.43;;;;;;;12.55;100.00;99415.91;5009115;28;20500;-71
2024/03/31 01:51:19;;;;;;;27.23;7.57;;;;;;;12.38;100.00;99399.69;5009721;28;20037;-70
2024/03/31 01:53:44;;;;;;;24.70;7.10;;;;;;;11.66;100.00;99335.78;5027747;28;20091;-72
2024/03/31 01:56:10;;;;;;;22.40;6.88;;;;;;;11.64;100.00;99388.44;5007813;28;20048;-71
2024/03/31 01:58:35;;;;;;;20.95;6.38;;;;;;;11.93;100.00;99319.31;5027755;28;20034;-75
2024/03/31 02:01:00;;;;;;;26.98;7.00;;;;;;;12.37;100.00;99401.41;5026838;28;20037;-71
2024/03/31 02:03:26;;;;;;;25.90;6.20;;;;;;;11.38;100.00;99227.53;5027192;28;20468;-70
2024/03/31 02:05:51;;;;;;;29.38;7.10;;;;;;;12.56;100.00;99388.66;5026826;28;20034;-70
2024/03/31 02:08:17;;;;;;;26.65;7.40;;;;;;;12.44;100.00;99435.91;5025607;28;20092;-70
2024/03/31 02:10:42;;;;;;;24.83;7.45;;;;;;;12.30;100.00;99470.56;5026432;28;20026;-71
2024/03/31 02:13:07;;;;;;;27.58;6.85;;;;;;;11.86;100.00;99351.03;5026660;28;20113;-71
2024/03/31 02:15:33;;;;;;;23.58;7.10;;;;;;;11.54;100.00;99410.09;5027204;28;20029;-71
2024/03/31 02:17:58;;;;;;;21.95;6.43;;;;;;;11.70;100.00;99523.19;5027276;28;20061;-71
2024/03/31 02:20:24;;;;;;;25.25;6.82;;;;;;;11.21;100.00;99348.66;5026115;28;20112;-71
2024/03/31 02:22:52;;;;;;;21.73;6.43;;;;;;;11.45;100.00;99440.19;5026911;28;20085;-72
2024/03/31 02:25:17;;;;;;;20.42;6.45;;;;;;;11.40;100.00;99498.06;5027259;28;20022;-71
2024/03/31 02:27:43;;;;;;;25.88;7.03;;;;;;;11.25;100.00;99355.28;5026211;28;20040;-71
2024/03/31 02:30:08;;;;;;;24.45;7.00;;;;;;;11.30;100.00;99340.66;5026318;28;20037;-73
2024/03/31 02:32:34;;;;;;;22.60;6.10;;;;;;;11.90;100.00;99479.06;5026843;28;20037;-70
2024/03/31 02:35:00;;;;;;;27.38;6.70;;;;;;;11.27;100.00;99393.38;5009377;28;20029;-72
2024/03/31 02:37:32;;;;;;;21.08;6.72;;;;;;;12.27;100.00;99429.91;5028850;28;20029;-71
2024/03/31 02:39:58;;;;;;;28.13;6.43;;;;;;;11.69;100.00;99485.84;5029524;28;20044;-71
2024/03/31 02:42:23;;;;;;;18.75;5.68;;;;;;;11.39;100.00;99382.69;5030755;28;20037;-71
2024/03/31 02:44:48;;;;;;;25.20;5.93;;;;;;;11.48;100.00;99480.78;5030104;28;20389;-70
2024/03/31 02:47:14;;;;;;;24.00;6.38;;;;;;;11.56;100.00;99519.47;5025916;28;20044;-70
2024/03/31 02:49:39;;;;;;;23.73;6.28;;;;;;;10.59;100.00;99426.56;5028834;28;20123;-74
2024/03/31 02:52:05;;;;;;;21.63;5.78;;;;;;;11.61;100.00;99475.13;5014934;28;20411;-71
2024/03/31 02:54:30;;;;;;;24.17;6.30;;;;;;;11.70;100.00;99446.78;5028486;28;20545;-70
2024/03/31 02:56:56;;;;;;;19.65;6.18;;;;;;;11.67;100.00;99502.91;5030212;28;20041;-69
2024/03/31 02:59:21;;;;;;;24.80;6.20;;;;;;;11.52;100.00;99528.13;5043051;28;20035;-71
2024/03/31 03:01:46;;;;;;;18.52;5.43;;;;;;;11.28;100.00;99435.75;5030870;28;20116;-70
2024/03/31 03:04:12;;;;;;;21.02;6.38;;;;;;;11.60;100.00;99516.75;5027825;28;20056;-70
2024/03/31 03:06:37;;;;;;;21.48;6.55;;;;;;;11.51;100.00;99511.22;5026826;28;20037;-70
2024/03/31 03:09:03;;;;;;;20.95;6.68;;;;;;;11.14;100.00;99450.72;5026571;28;20052;-69
2024/03/31 03:11:29;;;;;;;18.40;5.85;;;;;;;11.43;100.00;99467.41;5010508;28;20037;-69
2024/03/31 03:13:54;;;;;;;21.58;6.50;;;;;;;11.17;100.00;99595.63;5013757;28;20049;-70
2024/03/31 03:16:19;;;;;;;18.10;5.80;;;;;;;11.68;100.00;99535.16;5027914;28;20034;-72
2024/03/31 03:18:45;;;;;;;21.63;6.28;;;;;;;11.23;100.00;99577.59;5027084;28;20091;-72
2024/03/31 03:21:10;;;;;;;23.17;7.50;;;;;;;11.50;100.00;99514.63;5028088;28;20097;-75
2024/03/31 03:23:36;;;;;;;22.17;6.45;;;;;;;11.13;100.00;99419.38;5027583;28;20029;-72
2024/03/31 03:26:01;;;;;;;15.45;6.20;;;;;;;14.60;100.00;99244.50;5011871;28;20040;-69
2024/03/31 03:28:27;;;;;;;25.50;7.85;;;;;;;12.20;100.00;99504.09;5028858;28;20446;-71
2024/03/31 03:30:53;;;;;;;19.15;6.18;;;;;;;11.17;100.00;99458.25;5028329;28;20136;-69
2024/03/31 03:33:18;;;;;;;25.13;7.50;;;;;;;11.03;100.00;99575.75;5011304;28;20037;-71
2024/03/31 03:35:45;;;;;;;25.35;8.02;;;;;;;11.00;100.00;99568.25;5029115;28;20024;-73
2024/03/31 03:38:10;;;;;;;21.38;7.68;;;;;;;10.94;100.00;99489.63;5028541;28;20094;-70
2024/03/31 03:40:36;;;;;;;24.98;8.45;;;;;;;11.26;100.00;99483.31;5028077;28;20038;-72
2024/03/31 03:43:01;;;;;;;21.65;7.82;;;;;;;11.48;100.00;99563.06;5009837;28;20052;-71
2024/03/31 03:45:27;;;;;;;25.90;7.90;;;;;;;10.94;100.00;99588.00;5028173;28;20136;-71
2024/03/31 03:47:52;;;;;;;23.25;7.38;;;;;;;10.20;100.00;99506.75;5027580;28;20026;-71
2024/03/31 03:50:18;;;;;;;20.33;6.85;;;;;;;9.78;100.00;99429.44;5010738;28;20038;-70
2024/03/31 03:52:43;;;;;;;25.05;6.55;;;;;;;10.77;100.00;99458.94;5010384;28;20484;-72
2024/03/31 03:55:09;;;;;;;20.50;6.53;;;;;;;10.64;100.00;99505.16;5028972;28;20120;-70
2024/03/31 03:57:34;;;;;;;24.75;6.30;;;;;;;10.97;100.00;99585.34;5010876;28;20049;-69
2024/03/31 03:59:59;;;;;;;23.60;6.10;;;;;;;10.96;100.00;99587.06;5029388;28;20034;-70
2024/03/31 04:02:25;;;;;;;22.92;6.18;;;;;;;10.53;100.00;99621.66;5029235;28;20036;-69
2024/03/31 04:04:51;;;;;;;27.05;6.22;;;;;;;10.99;100.00;99535.25;5010595;28;20416;-69
2024/03/31 04:07:17;;;;;;;23.95;6.53;;;;;;;10.16;100.00;99396.00;5011311;28;20049;-69
2024/03/31 04:09:42;;;;;;;22.45;6.32;;;;;;;10.36;100.00;99475.66;5011399;28;20557;-70
2024/03/31 04:12:08;;;;;;;27.90;6.25;;;;;;;10.31;100.00;99504.66;5028684;28;20033;-70
2024/03/31 04:14:33;;;;;;;26.90;6.80;;;;;;;10.82;100.00;99543.50;5028548;28;20030;-69
2024/03/31 04:16:59;;;;;;;25.88;7.65;;;;;;;10.46;100.00;99608.31;5028647;28;20120;-70
2024/03/31 04:19:28;;;;;;;23.48;7.30;;;;;;;10.58;100.00;99501.16;5028425;28;20064;-69
2024/03/31 04:21:53;;;;;;;30.42;8.30;;;;;;;10.45;100.00;99525.34;5027814;28;20422;-69
2024/03/31 04:24:19;;;;;;;27.77;8.52;;;;;;;11.12;100.00;99595.78;5010075;28;20029;-74
2024/03/31 04:26:44;;;;;;;24.42;7.88;;;;;;;11.03;100.00;99587.66;5028346;28;20078;-71
2024/03/31 04:29:09;;;;;;;22.50;8.20;;;;;;;10.90;100.00;99583.88;5028590;28;20048;-69
2024/03/31 04:31:35;;;;;;;23.60;7.82;;;;;;;10.72;100.00;99485.38;5027740;28;20517;-69
2024/03/31 04:34:03;;;;;;;22.92;7.00;;;;;;;10.35;100.00;99400.34;5011178;28;20048;-69
2024/03/31 04:36:31;;;;;;;28.52;7.90;;;;;;;11.08;100.00;99461.13;5009639;28;20087;-69
2024/03/31 04:38:56;;;;;;;23.95;5.97;;;;;;;11.05;100.00;99563.00;5027654;28;20041;-69
2024/03/31 04:41:22;;;;;;;19.00;5.68;;;;;;;10.89;100.00;99491.53;5028259;28;20036;-70
2024/03/31 04:43:53;;;;;;;18.80;6.38;;;;;;;11.61;100.00;99558.31;5028231;28;20411;-71
2024/03/31 04:46:18;;;;;;;22.35;6.18;;;;;;;11.32;100.00;99544.16;5028030;28;20099;-70
2024/03/31 04:48:44;;;;;;;19.92;5.75;;;;;;;11.48;100.00;99602.94;5027474;28;20491;-71
2024/03/31 04:51:09;;;;;;;18.65;5.50;;;;;;;11.62;100.00;99588.81;5028309;28;20025;-68
2024/03/31 04:53:39;;;;;;;21.98;4.75;;;;;;;11.50;100.00;99563.81;5028464;28;20407;-68
2024/03/31 04:56:04;;;;;;;19.70;5.95;;;;;;;11.10;100.00;99497.53;5026717;28;20032;-68
2024/03/31 04:58:30;;;;;;;20.35;5.55;;;;;;;11.88;100.00;99603.94;5026625;28;20033;-68
2024/03/31 05:00:56;;;;;;;18.40;5.80;;;;;;;11.67;100.00;99599.66;5008667;28;20067;-68
2024/03/31 05:03:23;;;;;;;16.58;6.25;;;;;;;10.95;100.00;99454.88;5027813;28;20052;-67
2024/03/31 05:05:49;;;;;;;21.42;6.38;;;;;;;11.39;100.00;99499.75;5027586;28;20033;-70
2024/03/31 05:08:14;;;;;;;18.75;5.63;;;;;;;12.08;100.00;99605.69;5027785;28;20052;-69
2024/03/31 05:10:39;;;;;;;16.45;4.75;;;;;;;12.26;100.00;99635.50;5027154;28;20041;-68
2024/03/31 05:13:05;;;;;;;17.98;5.60;;;;;;;11.88;100.00;99568.28;5026886;28;20419;-68
2024/03/31 05:15:30;;;;;;;17.70;5.82;;;;;;;12.34;100.00;99641.13;5027799;28;20403;-68
2024/03/31 05:17:56;;;;;;;19.35;5.45;;;;;;;11.51;100.00;99580.75;5009718;28;20033;-68
2024/03/31 05:20:21;;;;;;;19.55;6.15;;;;;;;12.69;100.00;99650.75;5027660;28;20033;-69
2024/03/31 05:22:47;;;;;;;15.27;5.85;;;;;;;12.98;100.00;99623.97;5008353;28;20030;-68
2024/03/31 05:25:14;;;;;;;14.68;5.65;;;;;;;13.18;100.00;99626.50;5026718;28;20472;-69
2024/03/31 05:27:39;;;;;;;19.70;5.80;;;;;;;13.54;100.00;99618.94;5026765;28;20029;-68
2024/03/31 05:30:05;;;;;;;23.52;6.35;;;;;;;13.19;100.00;99566.94;5008814;28;20427;-67
2024/03/31 05:32:30;;;;;;;20.45;7.18;;;;;;;13.76;100.00;99665.59;5013561;28;20040;-68
2024/03/31 05:34:56;;;;;;;28.00;8.88;;;;;;;14.11;100.00;99658.81;5026880;28;21704;-68
2024/03/31 05:37:21;;;;;;;19.80;8.23;;;;;;;13.96;100.00;99718.34;5026679;28;20093;-69
2024/03/31 05:39:47;;;;;;;34.50;8.50;;;;;;;14.17;100.00;99654.25;5026724;28;20033;-70
2024/03/31 05:42:12;;;;;;;23.73;8.13;;;;;;;14.88;100.00;99704.47;5026771;28;20033;-73
2024/03/31 05:44:37;;;;;;;20.05;6.93;;;;;;;15.25;100.00;99698.34;5025564;28;20048;-69
2024/03/31 05:47:04;;;;;;;19.38;6.82;;;;;;;15.38;100.00;99742.91;5027815;28;20466;-68
2024/03/31 05:49:30;;;;;;;26.13;7.60;;;;;;;15.76;100.00;99790.47;5037351;28;20030;-70
2024/03/31 05:51:55;;;;;;;28.38;8.27;;;;;;;15.89;100.00;99845.31;5029104;28;20030;-70
2024/03/31 05:54:20;;;;;;;24.90;7.35;;;;;;;16.25;100.00;99812.59;5026787;28;20091;-70
2024/03/31 05:56:46;;;;;;;18.60;6.85;;;;;;;16.01;100.00;99852.38;5027055;28;20497;-69
2024/03/31 05:59:11;;;;;;;19.90;5.57;;;;;;;16.69;100.00;99927.47;5026635;28;20407;-69
2024/03/31 06:01:37;;;;;;;19.17;5.75;;;;;;;16.63;100.00;99918.38;5026772;28;20033;-69
2024/03/31 06:04:02;;;;;;;18.95;5.88;;;;;;;16.50;100.00;99978.13;5008524;28;20048;-69
2024/03/31 06:06:27;;;;;;;16.48;6.65;;;;;;;17.08;100.00;99905.59;5026268;28;20083;-69
2024/03/31 06:08:53;;;;;;;23.42;5.63;;;;;;;17.09;100.00;99855.84;5009282;28;20021;-70
2024/03/31 06:11:18;;;;;;;13.57;4.70;;;;;;;17.63;100.00;99941.06;5029538;28;20419;-70
2024/03/31 06:13:44;;;;;;;18.35;4.38;;;;;;;17.55;100.00;99989.50;5031525;28;20076;-69
2024/03/31 06:16:10;;;;;;;16.48;3.97;;;;;;;16.88;100.00;99969.22;5013406;28;20112;-69
2024/03/31 06:18:36;;;;;;;13.32;4.25;;;;;;;17.77;100.00;100110.81;5020477;28;20033;-69
2024/03/31 06:21:06;;;;;;;14.57;3.85;;;;;;;18.01;100.00;100115.44;5012752;28;20041;-70
2024/03/31 06:23:32;;;;;;;16.48;4.20;;;;;;;18.14;100.00;100169.63;5029598;28;20432;-71
2024/03/31 06:25:58;;;;;;;17.65;4.70;;;;;;;18.32;100.00;100191.78;5030537;28;20025;-69
2024/03/31 06:28:24;;;;;;;18.38;4.70;;;;;;;18.46;100.00;100214.19;5030736;28;20025;-69
2024/03/31 06:30:50;;;;;;;20.77;4.80;;;;;;;19.13;100.00;100177.59;5012571;28;20040;-70
2024/03/31 06:33:15;;;;;;;16.95;4.70;;;;;;;18.55;100.00;100129.50;5030436;28;20103;-69
2024/03/31 06:35:41;;;;;;;15.82;4.35;;;;;;;18.50;100.00;100154.69;5030186;28;20029;-72
2024/03/31 06:38:06;;;;;;;17.60;4.82;;;;;;;18.47;100.00;100223.56;5030379;28;20022;-69
2024/03/31 06:40:33;;;;;;;23.15;5.50;;;;;;;18.23;100.00;100204.28;5012407;28;20029;-69
2024/03/31 06:42:59;;;;;;;18.35;5.53;;;;;;;18.64;100.00;100314.41;5030193;28;20018;-71
2024/03/31 06:45:24;;;;;;;18.83;5.20;;;;;;;18.66;100.00;100240.47;5012964;28;20036;-69
2024/03/31 06:47:50;;;;;;;15.05;4.55;;;;;;;18.38;100.00;100268.63;5016321;28;20037;-69
2024/03/31 06:50:15;;;;;;;17.40;4.55;;;;;;;19.19;100.00;100337.06;5030270;28;20156;-68
2024/03/31 06:52:41;;;;;;;15.88;4.75;;;;;;;18.84;100.00;100211.06;5030394;28;20026;-69
2024/03/31 06:55:06;;;;;;;13.38;3.75;;;;;;;19.04;100.00;100406.63;5030076;28;20120;-69
2024/03/31 06:57:32;;;;;;;15.20;3.83;;;;;;;19.73;100.00;100386.28;5029254;28;20492;-70
2024/03/31 06:59:57;;;;;;;13.52;4.82;;;;;;;19.21;100.00;100408.25;5030165;28;20021;-69
2024/03/31 07:02:22;;;;;;;17.90;6.55;;;;;;;19.12;100.00;100354.63;5029762;28;20491;-69
2024/03/31 07:04:48;;;;;;;22.42;6.25;;;;;;;20.44;100.00;100356.13;5029864;28;20087;-69
2024/03/31 07:07:13;;;;;;;15.85;5.20;;;;;;;20.62;100.00;100357.56;5011512;28;20026;-69
2024/03/31 07:09:39;;;;;;;15.85;6.05;;;;;;;21.25;100.00;100347.44;5011672;28;20033;-69
2024/03/31 07:12:05;;;;;;;16.50;5.40;;;;;;;19.76;100.00;100341.44;5029144;28;20041;-69
2024/03/31 07:14:30;;;;;;;17.38;5.00;;;;;;;20.61;100.00;100392.09;5029498;28;20041;-70
2024/03/31 07:16:58;;;;;;;15.50;4.28;;;;;;;20.57;100.00;100426.81;5028701;28;20041;-69
2024/03/31 07:19:24;;;;;;;17.60;4.18;;;;;;;20.36;100.00;100412.59;5029555;28;20111;-70
2024/03/31 07:21:50;;;;;;;13.98;3.80;;;;;;;20.98;100.00;100413.84;5011035;28;20060;-69
2024/03/31 07:24:15;;;;;;;15.73;3.78;;;;;;;20.71;100.00;100470.72;5011372;28;20491;-69
2024/03/31 07:26:41;;;;;;;19.73;4.07;;;;;;;20.97;100.00;100377.75;5028562;28;20048;-69
2024/03/31 07:29:06;;;;;;;12.88;3.72;;;;;;;21.34;100.00;100418.44;5029685;28;20030;-69
2024/03/31 07:31:32;;;;;;;16.38;4.07;;;;;;;21.74;100.00;100354.50;5029574;28;20044;-70
2024/03/31 07:33:57;;;;;;;16.10;3.83;;;;;;;21.73;100.00;100425.34;5029455;28;20033;-69
2024/03/31 07:36:23;;;;;;;18.02;3.95;;;;;;;21.58;100.00;100466.03;5029351;28;20041;-69
2024/03/31 07:38:48;;;;;;;20.30;3.70;;;;;;;22.22;100.00;100359.75;5029239;28;20103;-70
2024/03/31 07:41:13;;;;;;;14.90;3.95;;;;;;;21.81;100.00;100416.16;5029469;28;20060;-69
2024/03/31 07:43:39;;;;;;;14.18;3.22;;;;;;;21.37;100.00;100351.00;5028969;28;20033;-69
2024/03/31 07:46:04;;;;;;;15.18;3.55;;;;;;;20.89;100.00;100342.06;5011483;28;20044;-70
2024/03/31 07:48:30;;;;;;;14.55;4.03;;;;;;;22.28;100.00;100426.69;5010996;28;20025;-68
2024/03/31 07:50:55;;;;;;;14.18;3.67;;;;;;;21.69;100.00;100497.19;5028647;28;20033;-73
2024/03/31 07:53:20;;;;;;;12.30;3.45;;;;;;;21.88;100.00;100455.44;5026983;28;20101;-70
2024/03/31 07:55:46;;;;;;;12.23;3.13;;;;;;;21.91;100.00;100461.22;5010943;28;20057;-73
2024/03/31 07:58:11;;;;;;;13.30;3.67;;;;;;;21.59;100.00;100402.97;5028810;28;20472;-70
2024/03/31 08:00:37;;;;;;;16.05;3.70;;;;;;;22.13;100.00;100375.94;5028879;28;20025;-70
2024/03/31 08:03:02;;;;;;;14.20;3.72;;;;;;;23.06;100.00;100442.78;5011086;28;20091;-70
2024/03/31 08:05:28;;;;;;;16.85;3.10;;;;;;;22.01;100.00;100503.72;5028791;28;20103;-70
2024/03/31 08:07:54;;;;;;;12.38;3.28;;;;;;;22.86;100.00;100344.84;5027510;28;20488;-72
2024/03/31 08:10:20;;;;;;;12.90;3.38;;;;;;;22.72;100.00;100418.44;5010853;28;20026;-70
2024/03/31 08:12:45;;;;;;;11.48;3.42;;;;;;;22.27;100.00;100526.13;5025785;28;20507;-70
2024/03/31 08:15:10;;;;;;;13.88;3.47;;;;;;;22.46;100.00;100432.41;5008248;28;20026;-70
2024/03/31 08:17:36;;;;;;;18.90;3.72;;;;;;;23.05;100.00;100397.03;5028689;28;20044;-70
2024/03/31 08:20:01;;;;;;;16.60;3.83;;;;;;;22.15;100.00;100594.28;5009266;28;20076;-70
2024/03/31 08:22:28;;;;;;;15.27;3.20;;;;;;;23.40;100.00;100465.41;5027721;28;20401;-69
2024/03/31 08:24:55;;;;;;;11.55;3.25;;;;;;;23.09;100.00;100560.19;5025297;28;20116;-70
2024/03/31 08:27:20;;;;;;;13.75;3.15;;;;;;;22.67;100.00;100603.78;5009885;28;20029;-69
2024/03/31 08:29:46;;;;;;;11.85;2.88;;;;;;;22.54;100.00;100574.44;5008811;28;20036;-70
2024/03/31 08:32:11;;;;;;;14.07;3.17;;;;;;;22.49;100.00;100504.75;5027948;28;20454;-70
2024/03/31 08:34:37;;;;;;;12.07;3.40;;;;;;;21.48;100.00;100581.41;5009307;28;20136;-70
2024/03/31 08:37:02;;;;;;;11.88;3.33;;;;;;;21.62;100.00;100558.06;5025915;28;20380;-70
2024/03/31 08:39:28;;;;;;;13.00;2.90;;;;;;;22.60;100.00;100408.94;5010481;28;20099;-70
2024/03/31 08:41:57;;;;;;;13.43;2.90;;;;;;;22.27;100.00;100577.94;5015902;28;20037;-70
2024/03/31 08:44:23;;;;;;;15.05;3.40;;;;;;;23.23;100.00;100463.19;5026723;28;20533;-70
2024/03/31 08:46:50;;;;;;;15.57;3.28;;;;;;;22.90;100.00;100434.44;5028006;28;20567;-70
2024/03/31 08:49:16;;;;;;;14.85;3.30;;;;;;;23.23;100.00;100424.25;5026727;28;20068;-70
2024/03/31 08:51:42;;;;;;;11.45;3.13;;;;;;;23.26;100.00;100579.72;5027570;28;20029;-71
2024/03/31 08:54:07;;;;;;;15.00;3.33;;;;;;;23.03;100.00;100427.47;5009735;28;20411;-70
2024/03/31 08:56:33;;;;;;;12.93;3.17;;;;;;;24.18;100.00;100460.41;5027242;28;20045;-70
2024/03/31 08:59:00;;;;;;;13.52;3.55;;;;;;;23.40;100.00;100539.84;5027257;28;20043;-70
2024/03/31 09:01:26;;;;;;;14.63;3.08;;;;;;;24.22;100.00;100487.84;5027174;28;20109;-70
2024/03/31 09:03:52;;;;;;;13.07;3.10;;;;;;;22.80;100.00;100499.13;5027284;28;20096;-74
2024/03/31 09:06:17;;;;;;;13.85;3.17;;;;;;;24.42;100.00;100446.38;5009398;28;20029;-71
2024/03/31 09:08:43;;;;;;;13.52;3.10;;;;;;;22.24;100.00;100502.19;5027394;28;20040;-69
2024/03/31 09:11:08;;;;;;;15.15;3.22;;;;;;;24.01;100.00;100409.69;5026914;28;20411;-69
2024/03/31 09:13:35;;;;;;;13.98;2.70;;;;;;;24.71;100.00;100460.50;5009246;28;20057;-70
2024/03/31 09:16:01;;;;;;;12.70;3.42;;;;;;;24.64;100.00;100494.94;5026713;28;20029;-69
2024/03/31 09:18:26;;;;;;;13.13;2.80;;;;;;;23.99;100.00;100549.28;5027575;28;20496;-69
2024/03/31 09:20:52;;;;;;;13.45;3.00;;;;;;;24.64;100.00;100422.91;5026196;28;20048;-70
2024/03/31 09:23:18;;;;;;;13.00;3.15;;;;;;;23.97;100.00;100449.84;5027862;28;20056;-69
2024/03/31 09:25:43;;;;;;;12.80;3.60;;;;;;;24.49;100.00;100470.09;5026785;28;20033;-69
2024/03/31 09:28:09;;;;;;;13.38;3.10;;;;;;;24.66;100.00;100508.66;5027158;28;20464;-69
2024/03/31 09:30:35;;;;;;;14.02;3.10;;;;;;;22.55;100.00;100587.28;5027567;28;20045;-70
2024/03/31 09:33:02;;;;;;;16.45;3.35;;;;;;;24.95;100.00;100504.63;5025315;28;20148;-69
2024/03/31 09:35:27;;;;;;;12.50;3.30;;;;;;;23.88;100.00;100589.06;5027034;28;20038;-69
2024/03/31 09:37:53;;;;;;;12.00;2.80;;;;;;;23.57;100.00;100586.22;5027637;28;20041;-69
2024/03/31 09:40:18;;;;;;;10.63;3.30;;;;;;;24.07;100.00;100503.63;5026867;28;20032;-69
2024/03/31 09:42:46;;;;;;;13.93;3.53;;;;;;;24.61;100.00;100508.16;5026380;28;20033;-69
2024/03/31 09:45:12;;;;;;;13.05;3.13;;;;;;;24.17;100.00;100547.13;5028661;28;20415;-70
2024/03/31 09:47:41;;;;;;;16.05;3.58;;;;;;;25.46;100.00;100478.81;5031428;28;20029;-71
2024/03/31 09:50:31;;;;;;;14.32;3.40;;;;;;;25.96;100.00;100504.13;5012520;28;20029;-70
2024/03/31 09:53:02;;;;;;;11.95;3.47;;;;;;;25.62;100.00;100500.88;5011946;28;20042;-70
2024/03/31 09:55:33;;;;;;;12.35;3.22;;;;;;;23.70;100.00;100574.00;5031130;28;20048;-73
2024/03/31 09:57:59;;;;;;;13.52;3.15;;;;;;;24.60;100.00;100545.53;5030937;28;20073;-73
2024/03/31 10:00:28;;;;;;;14.70;3.47;;;;;;;25.40;100.00;100415.03;5031379;28;20033;-70
2024/03/31 10:03:02;;;;;;;19.65;3.78;;;;;;;25.16;100.00;100447.41;5029448;28;20034;-70
2024/03/31 10:05:39;;;;;;;13.63;3.40;;;;;;;26.19;100.00;100409.19;5013500;28;20411;-70
2024/03/31 10:08:07;;;;;;;13.70;3.20;;;;;;;26.27;100.00;100490.19;5030412;28;20060;-70
2024/03/31 10:10:33;;;;;;;10.25;3.33;;;;;;;26.79;100.00;100457.03;5030635;28;20037;-71
2024/03/31 10:13:02;;;;;;;16.73;4.18;;;;;;;26.42;100.00;100402.78;5030899;28;20034;-69
2024/03/31 10:15:30;;;;;;;10.68;3.13;;;;;;;26.81;100.00;100380.25;5029828;28;20518;-70
2024/03/31 10:17:57;;;;;;;11.63;3.20;;;;;;;26.06;100.00;100478.97;5030631;28;20491;-71
2024/03/31 10:20:25;;;;;;;13.57;3.53;;;;;;;26.28;100.00;100523.16;5012492;28;20025;-70
2024/03/31 10:22:52;;;;;;;13.38;3.53;;;;;;;25.98;100.00;100425.78;5030314;28;20083;-70
2024/03/31 10:25:19;;;;;;;15.13;3.40;;;;;;;25.15;100.00;100558.53;5030728;28;20067;-69
2024/03/31 10:27:45;;;;;;;16.90;3.60;;;;;;;25.77;100.00;100404.97;5030471;28;20029;-69
2024/03/31 10:30:11;;;;;;;12.05;3.40;;;;;;;25.89;100.00;100494.34;5030118;28;20060;-70
2024/03/31 10:32:37;;;;;;;11.25;3.65;;;;;;;26.96;100.00;100462.41;5012232;28;20065;-74
2024/03/31 10:35:04;;;;;;;12.10;3.40;;;;;;;26.33;100.00;100381.91;5030198;28;20042;-71
2024/03/31 10:37:32;;;;;;;15.55;3.60;;;;;;;26.80;100.00;100427.38;5030157;28;20060;-70
2024/03/31 10:40:02;;;;;;;13.25;3.47;;;;;;;25.87;100.00;100444.13;5029878;28;20504;-73
2024/03/31 10:42:28;;;;;;;13.87;3.50;;;;;;;26.54;100.00;100484.41;5030429;28;20049;-72
2024/03/31 10:44:54;;;;;;;12.13;3.50;;;;;;;26.69;100.00;100396.13;5012819;28;20346;-69
2024/03/31 10:47:23;;;;;;;12.48;3.50;;;;;;;26.66;100.00;100496.41;5012533;28;20107;-70
2024/03/31 10:50:02;;;;;;;11.45;3.20;;;;;;;26.64;100.00;100436.50;5030401;28;20025;-75
2024/03/31 10:52:31;;;;;;;14.90;3.25;;;;;;;26.25;100.00;100468.63;5029448;28;20508;-71
2024/03/31 10:54:56;;;;;;;13.60;3.53;;;;;;;26.40;100.00;100422.97;5028777;28;20030;-70
2024/03/31 10:57:22;;;;;;;11.10;3.30;;;;;;;26.96;100.00;100381.47;5010644;28;20135;-70
2024/03/31 10:59:48;;;;;;;13.77;3.63;;;;;;;26.64;100.00;100407.78;5029782;28;20076;-69
2024/03/31 11:02:14;;;;;;;12.07;3.60;;;;;;;27.54;100.00;100444.16;5029428;28;20034;-70
2024/03/31 11:04:40;;;;;;;13.18;3.90;;;;;;;26.69;100.00;100462.19;5030056;28;20502;-70
2024/03/31 11:07:07;;;;;;;12.77;3.60;;;;;;;26.70;100.00;100304.69;5028637;28;20037;-71
2024/03/31 11:09:33;;;;;;;13.13;3.88;;;;;;;27.01;100.00;100517.69;5030061;28;20072;-70